Time;durP1;ratioP1;P1;durP2;ratioP2;P2;SDS_P1;SDS_P2;PMS_P1;PMS_P2;Temp;Humidity;BMP_temperature;BMP_pressure;BME280_temperature;BME280_humidity;BME280_pressure;Samples;Min_cycle;Max_cycle;Signal;HPM_P1;HPM_P2
2021/03/14 00:00:38;;;;;;;14.93;7.20;;;12.60;99.90;;;;;;5092809;28;20082;-78
2021/03/14 00:03:06;;;;;;;13.50;6.30;;;12.70;99.90;;;;;;5091649;28;20085;-78
2021/03/14 00:05:33;;;;;;;13.32;6.80;;;12.70;99.90;;;;;;5092808;28;20027;-78
2021/03/14 00:07:59;;;;;;;12.80;6.75;;;12.70;99.90;;;;;;5092489;28;20154;-78
2021/03/14 00:10:25;;;;;;;11.93;6.45;;;12.70;99.90;;;;;;5092537;28;20103;-78
2021/03/14 00:12:51;;;;;;;15.80;7.57;;;12.80;99.90;;;;;;5091267;28;20024;-78
2021/03/14 00:15:21;;;;;;;17.83;8.18;;;12.80;99.90;;;;;;5092527;28;20035;-77
2021/03/14 00:17:47;;;;;;;13.88;6.65;;;12.70;99.90;;;;;;5091361;28;20028;-78
2021/03/14 00:20:13;;;;;;;10.00;6.60;;;12.70;99.90;;;;;;5092368;28;20024;-78
2021/03/14 00:22:39;;;;;;;11.35;6.32;;;12.70;99.90;;;;;;5092676;28;20077;-78
2021/03/14 00:25:10;;;;;;;12.90;6.50;;;12.70;99.90;;;;;;5092429;28;20423;-78
2021/03/14 00:27:36;;;;;;;11.82;7.43;;;12.70;99.90;;;;;;5091290;28;20081;-78
2021/03/14 00:30:06;;;;;;;11.50;6.50;;;12.70;99.90;;;;;;5092329;28;20043;-78
2021/03/14 00:32:33;;;;;;;11.00;6.50;;;12.70;99.90;;;;;;5092494;28;20012;-78
2021/03/14 00:34:59;;;;;;;12.07;7.70;;;12.70;99.90;;;;;;5092237;28;20027;-78
2021/03/14 00:37:25;;;;;;;12.07;6.35;;;12.70;99.90;;;;;;5092354;28;20031;-78
2021/03/14 00:39:51;;;;;;;13.35;6.68;;;12.70;99.90;;;;;;5092315;28;20063;-77
2021/03/14 00:42:18;;;;;;;17.77;6.25;;;12.60;99.90;;;;;;5092475;28;20056;-78
2021/03/14 00:44:44;;;;;;;10.48;6.15;;;12.70;99.90;;;;;;5092304;28;20499;-78
2021/03/14 00:47:11;;;;;;;12.18;6.18;;;12.70;99.90;;;;;;5090975;28;20123;-78
2021/03/14 00:49:37;;;;;;;9.05;6.18;;;12.70;99.90;;;;;;5092169;28;20040;-78
2021/03/14 00:52:03;;;;;;;11.95;6.15;;;12.60;99.90;;;;;;5092172;28;20028;-78
2021/03/14 00:54:29;;;;;;;10.88;6.32;;;12.70;99.90;;;;;;5092253;28;20043;-78
2021/03/14 00:56:55;;;;;;;12.95;6.13;;;12.70;99.90;;;;;;5095990;28;20032;-77
2021/03/14 00:59:21;;;;;;;11.52;6.47;;;12.70;99.90;;;;;;5094586;28;20063;-76
2021/03/14 01:01:47;;;;;;;15.75;7.00;;;12.70;99.90;;;;;;5096091;28;20480;-76
2021/03/14 01:04:13;;;;;;;13.35;6.57;;;12.70;99.90;;;;;;5095960;28;20032;-75
2021/03/14 01:06:39;;;;;;;10.48;5.80;;;12.70;99.90;;;;;;5095874;28;20028;-75
2021/03/14 01:09:07;;;;;;;10.10;5.93;;;12.70;99.90;;;;;;5094474;28;20036;-75
2021/03/14 01:11:33;;;;;;;14.30;6.43;;;12.60;99.90;;;;;;5096017;28;20405;-75
2021/03/14 01:14:18;;;;;;;17.88;6.40;;;12.70;99.90;;;;;;5094540;28;20399;-75
2021/03/14 01:17:01;;;;;;;12.50;5.93;;;12.60;99.90;;;;;;5094324;28;20123;-75
2021/03/14 01:19:29;;;;;;;15.73;6.93;;;12.70;99.90;;;;;;5094409;28;20028;-75
2021/03/14 01:21:57;;;;;;;15.18;7.60;;;12.60;99.90;;;;;;5095564;28;20357;-75
2021/03/14 01:24:23;;;;;;;15.68;5.55;;;12.60;99.90;;;;;;5095615;28;20549;-75
2021/03/14 01:26:49;;;;;;;10.45;5.70;;;12.70;99.90;;;;;;5095525;28;20040;-75
2021/03/14 01:29:15;;;;;;;14.25;5.47;;;12.60;99.90;;;;;;5095393;28;20067;-76
2021/03/14 01:31:41;;;;;;;11.27;5.25;;;12.60;99.90;;;;;;5095606;28;20028;-75
2021/03/14 01:34:07;;;;;;;8.88;5.30;;;12.60;99.90;;;;;;5095391;28;20089;-76
2021/03/14 01:36:33;;;;;;;14.45;6.43;;;12.50;99.90;;;;;;5095467;28;20106;-78
2021/03/14 01:38:58;;;;;;;19.90;6.10;;;12.50;99.90;;;;;;5095237;28;20056;-78
2021/03/14 01:41:24;;;;;;;13.52;5.40;;;12.50;99.90;;;;;;5095291;28;20274;-77
2021/03/14 01:43:50;;;;;;;8.70;5.10;;;12.50;99.90;;;;;;5095160;28;20024;-76
2021/03/14 01:46:16;;;;;;;9.13;5.80;;;12.50;99.90;;;;;;5095351;28;20477;-75
2021/03/14 01:48:43;;;;;;;10.20;5.53;;;12.40;99.90;;;;;;5094991;28;20119;-78
2021/03/14 01:51:10;;;;;;;12.90;5.95;;;12.40;99.90;;;;;;5095312;28;20449;-77
2021/03/14 01:53:35;;;;;;;10.25;6.63;;;12.40;99.90;;;;;;5095015;28;20028;-77
2021/03/14 01:56:02;;;;;;;11.27;6.10;;;12.20;99.90;;;;;;5094991;28;20461;-78
2021/03/14 01:58:28;;;;;;;10.50;6.05;;;12.20;99.90;;;;;;5094823;28;20036;-77
2021/03/14 02:00:54;;;;;;;13.30;6.25;;;12.10;99.90;;;;;;5095113;28;20480;-78
2021/03/14 02:03:22;;;;;;;14.60;6.60;;;12.00;99.90;;;;;;5094867;28;20023;-78
2021/03/14 02:05:49;;;;;;;12.40;6.57;;;11.90;99.90;;;;;;5094189;28;20397;-78
2021/03/14 02:08:15;;;;;;;14.00;7.40;;;11.90;99.90;;;;;;5094684;28;20035;-77
2021/03/14 02:10:42;;;;;;;16.33;8.05;;;11.90;99.90;;;;;;5094679;28;20385;-78
2021/03/14 02:13:18;;;;;;;13.63;8.23;;;11.80;99.90;;;;;;5093424;28;20032;-77
2021/03/14 02:15:51;;;;;;;19.13;8.10;;;11.80;99.90;;;;;;5094684;28;20032;-76
2021/03/14 02:18:19;;;;;;;15.10;7.65;;;11.80;99.90;;;;;;5094664;28;20028;-76
2021/03/14 02:20:45;;;;;;;13.70;7.68;;;11.80;99.90;;;;;;5094484;28;20070;-76
2021/03/14 02:23:38;;;;;;;14.00;6.45;;;11.90;99.90;;;;;;5094273;28;20034;-76
2021/03/14 02:26:17;;;;;;;18.50;6.97;;;12.00;99.90;;;;;;5093351;28;20036;-76
2021/03/14 02:28:45;;;;;;;18.70;7.28;;;12.00;99.90;;;;;;5092911;28;20036;-75
2021/03/14 02:31:11;;;;;;;14.45;6.90;;;12.00;99.90;;;;;;5093030;28;20031;-76
2021/03/14 02:33:39;;;;;;;12.80;6.80;;;12.00;99.90;;;;;;5094429;28;20024;-75
2021/03/14 02:36:11;;;;;;;9.95;6.38;;;12.00;99.90;;;;;;5093151;28;20380;-76
2021/03/14 02:38:41;;;;;;;15.18;6.70;;;12.00;99.90;;;;;;5094281;28;20481;-76
2021/03/14 02:41:09;;;;;;;17.05;7.32;;;12.10;99.90;;;;;;5094025;28;20405;-76
2021/03/14 02:43:36;;;;;;;11.13;6.00;;;12.10;99.90;;;;;;5093966;28;20488;-76
2021/03/14 02:46:03;;;;;;;12.48;7.13;;;12.10;99.90;;;;;;5093994;28;20046;-76
2021/03/14 02:48:29;;;;;;;8.68;4.95;;;12.10;99.90;;;;;;5093930;28;20122;-76
2021/03/14 02:50:58;;;;;;;10.55;6.25;;;12.20;99.90;;;;;;5093833;28;20119;-76
2021/03/14 02:53:25;;;;;;;11.38;6.07;;;12.20;99.90;;;;;;5093823;28;20069;-76
2021/03/14 02:55:53;;;;;;;12.45;6.90;;;12.10;99.90;;;;;;5092543;28;20078;-76
2021/03/14 02:58:20;;;;;;;10.90;5.85;;;12.10;99.90;;;;;;5093708;28;20047;-76
2021/03/14 03:00:47;;;;;;;10.32;6.22;;;12.10;99.90;;;;;;5093907;28;20036;-75
2021/03/14 03:03:13;;;;;;;12.93;5.03;;;12.10;99.90;;;;;;5093647;28;20081;-76
2021/03/14 03:05:40;;;;;;;11.77;5.72;;;12.20;99.90;;;;;;5093682;28;20391;-76
2021/03/14 03:08:07;;;;;;;18.25;6.18;;;12.10;99.90;;;;;;5093434;28;20029;-76
2021/03/14 03:10:41;;;;;;;11.20;5.05;;;12.10;99.90;;;;;;5093541;28;20441;-76
2021/03/14 03:13:08;;;;;;;14.75;5.03;;;12.10;99.90;;;;;;5093410;28;20090;-76
2021/03/14 03:15:35;;;;;;;10.43;4.85;;;12.20;99.90;;;;;;5093385;28;20032;-76
2021/03/14 03:18:02;;;;;;;11.75;4.68;;;12.10;99.90;;;;;;5092366;28;20134;-76
2021/03/14 03:20:28;;;;;;;9.10;4.68;;;12.20;99.90;;;;;;5093505;28;20016;-76
2021/03/14 03:22:55;;;;;;;11.35;5.45;;;12.10;99.90;;;;;;5093243;28;20032;-76
2021/03/14 03:25:22;;;;;;;8.48;4.45;;;12.10;99.90;;;;;;5093405;28;20383;-78
2021/03/14 03:27:49;;;;;;;8.07;4.82;;;12.10;99.90;;;;;;5093245;28;20161;-77
2021/03/14 03:30:17;;;;;;;10.57;4.90;;;12.10;99.90;;;;;;5093108;28;20039;-75
2021/03/14 03:32:44;;;;;;;12.02;4.40;;;12.10;99.90;;;;;;5093201;28;20028;-75
2021/03/14 03:35:12;;;;;;;10.57;4.15;;;12.10;99.90;;;;;;5093048;28;20035;-76
2021/03/14 03:37:38;;;;;;;11.98;5.53;;;12.10;99.90;;;;;;5093170;28;20024;-76
2021/03/14 03:40:06;;;;;;;6.88;4.75;;;12.10;99.90;;;;;;5093126;28;20028;-76
2021/03/14 03:42:35;;;;;;;13.07;5.50;;;12.20;99.90;;;;;;5092951;28;20043;-78
2021/03/14 03:45:04;;;;;;;8.02;3.88;;;12.10;99.90;;;;;;5092979;28;20052;-77
2021/03/14 03:47:30;;;;;;;13.13;4.55;;;12.10;99.90;;;;;;5092886;28;20028;-78
2021/03/14 03:49:57;;;;;;;9.68;4.82;;;12.10;99.90;;;;;;5092786;28;20036;-78
2021/03/14 03:52:24;;;;;;;10.82;4.38;;;12.10;99.90;;;;;;5092844;28;20048;-78
2021/03/14 03:54:52;;;;;;;10.90;5.13;;;12.10;99.90;;;;;;5092771;28;20507;-77
2021/03/14 03:57:20;;;;;;;8.32;4.18;;;12.00;99.90;;;;;;5092693;28;20059;-77
2021/03/14 03:59:51;;;;;;;8.93;4.30;;;12.00;99.90;;;;;;5092858;28;20083;-78
2021/03/14 04:02:17;;;;;;;7.78;4.13;;;12.00;99.90;;;;;;5092722;28;20110;-77
2021/03/14 04:04:45;;;;;;;10.40;4.13;;;11.90;99.90;;;;;;5092710;28;20028;-77
2021/03/14 04:07:12;;;;;;;15.82;6.38;;;11.90;99.90;;;;;;5092611;28;20500;-79
2021/03/14 04:09:38;;;;;;;11.35;4.72;;;11.90;99.90;;;;;;5091320;28;20048;-78
2021/03/14 04:12:06;;;;;;;11.48;4.88;;;11.90;99.90;;;;;;5092595;28;20015;-78
2021/03/14 04:14:33;;;;;;;10.52;4.82;;;11.80;99.90;;;;;;5092599;28;20032;-78
2021/03/14 04:17:01;;;;;;;11.20;4.63;;;11.90;99.90;;;;;;5092523;28;20469;-77
2021/03/14 04:19:31;;;;;;;11.52;4.18;;;11.80;99.90;;;;;;5092510;28;20039;-77
2021/03/14 04:21:59;;;;;;;12.40;5.03;;;11.90;99.90;;;;;;5092606;28;20020;-76
2021/03/14 04:24:28;;;;;;;11.63;5.50;;;11.80;99.90;;;;;;5091509;28;20102;-78
2021/03/14 04:26:55;;;;;;;12.00;4.70;;;11.80;99.90;;;;;;5092488;28;20520;-77
2021/03/14 04:29:22;;;;;;;14.02;5.75;;;11.90;99.90;;;;;;5093608;28;20040;-78
2021/03/14 04:31:51;;;;;;;7.22;4.60;;;11.90;99.90;;;;;;5096532;28;20027;-78
2021/03/14 04:34:19;;;;;;;8.15;4.53;;;11.90;99.90;;;;;;5096583;28;20081;-77
2021/03/14 04:36:46;;;;;;;7.72;4.25;;;11.90;99.90;;;;;;5096463;28;20103;-78
2021/03/14 04:39:14;;;;;;;13.43;4.53;;;11.90;99.90;;;;;;5096447;28;20031;-77
2021/03/14 04:41:43;;;;;;;11.90;4.53;;;11.90;99.90;;;;;;5096489;28;20035;-77
2021/03/14 04:44:10;;;;;;;8.93;3.92;;;11.90;99.90;;;;;;5096387;28;20024;-77
2021/03/14 04:46:37;;;;;;;13.27;4.90;;;11.80;99.90;;;;;;5096565;28;20467;-76
2021/03/14 04:49:04;;;;;;;8.13;4.70;;;11.80;99.90;;;;;;5096399;28;20472;-76
2021/03/14 04:51:32;;;;;;;10.77;4.25;;;11.80;99.90;;;;;;5096272;28;20540;-75
2021/03/14 04:53:58;;;;;;;8.77;4.45;;;11.80;99.90;;;;;;5096163;28;20031;-76
2021/03/14 04:56:26;;;;;;;9.52;4.10;;;11.80;99.90;;;;;;5096138;28;20081;-75
2021/03/14 04:58:54;;;;;;;8.40;4.75;;;11.80;99.90;;;;;;5095890;28;20048;-75
2021/03/14 05:01:22;;;;;;;11.20;4.95;;;11.80;99.90;;;;;;5096078;28;20056;-75
2021/03/14 05:03:51;;;;;;;15.18;5.88;;;11.80;99.90;;;;;;5096100;28;20399;-76
2021/03/14 05:06:19;;;;;;;11.73;4.75;;;11.80;99.90;;;;;;5095938;28;20035;-75
2021/03/14 05:08:46;;;;;;;11.75;5.10;;;11.80;99.90;;;;;;5095880;28;20035;-77
2021/03/14 05:11:17;;;;;;;13.20;5.88;;;11.70;99.90;;;;;;5095820;28;20017;-75
2021/03/14 05:13:44;;;;;;;17.75;5.75;;;11.70;99.90;;;;;;5095796;28;20024;-76
2021/03/14 05:16:15;;;;;;;9.30;4.95;;;11.80;99.90;;;;;;5095700;28;20032;-76
2021/03/14 05:18:45;;;;;;;9.60;4.22;;;11.70;99.90;;;;;;5095727;28;20107;-76
2021/03/14 05:21:12;;;;;;;8.45;4.68;;;11.80;99.90;;;;;;5095665;28;20036;-76
2021/03/14 05:23:39;;;;;;;18.00;4.65;;;11.80;99.90;;;;;;5095651;28;20031;-78
2021/03/14 05:26:10;;;;;;;10.77;5.55;;;11.80;99.90;;;;;;5095483;28;20479;-77
2021/03/14 05:28:38;;;;;;;11.32;5.40;;;11.90;99.90;;;;;;5095569;28;20473;-78
2021/03/14 05:31:35;;;;;;;9.65;4.63;;;11.90;99.90;;;;;;5095528;28;20028;-76
2021/03/14 05:34:04;;;;;;;12.32;4.32;;;11.90;99.90;;;;;;5095378;28;20028;-77
2021/03/14 05:36:31;;;;;;;13.07;4.93;;;11.90;99.90;;;;;;5095358;28;20165;-77
2021/03/14 05:38:58;;;;;;;10.32;3.80;;;11.90;99.90;;;;;;5095454;28;20031;-77
2021/03/14 05:41:26;;;;;;;8.02;4.22;;;12.00;99.90;;;;;;5094135;28;20024;-78
2021/03/14 05:43:52;;;;;;;12.50;5.13;;;11.90;99.90;;;;;;5095278;28;20105;-78
2021/03/14 05:46:18;;;;;;;13.00;4.07;;;12.00;99.90;;;;;;5095205;28;20052;-78
2021/03/14 05:48:46;;;;;;;9.55;5.15;;;12.00;99.90;;;;;;5095192;28;20488;-77
2021/03/14 05:51:18;;;;;;;9.93;4.68;;;12.00;99.90;;;;;;5095122;28;20068;-78
2021/03/14 05:53:46;;;;;;;9.20;4.93;;;12.10;99.90;;;;;;5095130;28;20093;-78
2021/03/14 05:56:12;;;;;;;11.50;4.60;;;12.10;99.90;;;;;;5094881;28;20043;-77
2021/03/14 05:58:39;;;;;;;8.32;4.95;;;12.20;99.90;;;;;;5094977;28;20043;-77
2021/03/14 06:01:10;;;;;;;9.63;5.13;;;12.20;99.90;;;;;;5095023;28;20104;-77
2021/03/14 06:03:37;;;;;;;8.35;4.43;;;12.30;99.90;;;;;;5095190;28;20035;-76
2021/03/14 06:06:06;;;;;;;8.77;4.72;;;12.30;99.90;;;;;;5093441;28;20358;-76
2021/03/14 06:08:33;;;;;;;9.98;4.53;;;12.30;99.90;;;;;;5094672;28;20081;-75
2021/03/14 06:11:07;;;;;;;17.60;4.47;;;12.40;99.90;;;;;;5094630;28;20028;-76
2021/03/14 06:13:34;;;;;;;8.32;4.78;;;12.30;99.90;;;;;;5094689;28;20024;-76
2021/03/14 06:16:00;;;;;;;8.23;3.97;;;12.40;99.90;;;;;;5094514;28;20036;-75
2021/03/14 06:18:27;;;;;;;7.30;4.05;;;12.40;99.90;;;;;;5094578;28;20020;-75
2021/03/14 06:20:53;;;;;;;10.98;4.47;;;12.40;99.90;;;;;;5094495;28;20058;-76
2021/03/14 06:23:20;;;;;;;8.40;3.88;;;12.50;99.90;;;;;;5094653;28;20024;-75
2021/03/14 06:25:51;;;;;;;6.32;3.75;;;12.50;99.90;;;;;;5094601;28;20400;-76
2021/03/14 06:28:39;;;;;;;9.35;3.92;;;12.50;99.90;;;;;;5094451;28;20025;-77
2021/03/14 06:31:20;;;;;;;8.40;3.65;;;12.60;99.90;;;;;;5093002;28;20039;-76
2021/03/14 06:33:46;;;;;;;10.80;4.57;;;12.80;99.90;;;;;;5094262;28;20032;-76
2021/03/14 06:36:20;;;;;;;9.90;4.85;;;12.90;99.90;;;;;;5094178;28;20024;-76
2021/03/14 06:38:50;;;;;;;7.82;3.88;;;13.00;99.90;;;;;;5094221;28;20032;-76
2021/03/14 06:41:18;;;;;;;5.15;3.72;;;13.10;99.90;;;;;;5094118;28;20532;-75
2021/03/14 06:43:50;;;;;;;8.80;3.90;;;13.20;99.90;;;;;;5094098;28;20024;-76
2021/03/14 06:46:28;;;;;;;11.23;4.57;;;13.30;99.90;;;;;;5094013;28;20032;-76
2021/03/14 06:49:24;;;;;;;11.25;3.72;;;13.30;99.90;;;;;;5093818;28;20032;-77
2021/03/14 06:51:52;;;;;;;7.07;3.65;;;13.30;99.90;;;;;;5081075;28;20440;-76
2021/03/14 06:54:27;;;;;;;11.40;4.20;;;13.40;99.90;;;;;;5092660;28;20396;-76
2021/03/14 06:57:17;;;;;;;10.48;4.35;;;13.40;99.90;;;;;;5093534;28;20074;-76
2021/03/14 06:59:48;;;;;;;7.95;4.05;;;13.50;99.90;;;;;;5093625;28;20052;-75
2021/03/14 07:02:22;;;;;;;7.95;3.63;;;13.50;99.90;;;;;;5093631;28;20055;-76
2021/03/14 07:04:52;;;;;;;7.45;3.92;;;13.50;99.90;;;;;;5093665;28;20032;-75
2021/03/14 07:07:31;;;;;;;9.52;4.70;;;13.60;99.90;;;;;;5093620;28;20111;-76
2021/03/14 07:10:02;;;;;;;8.57;4.40;;;13.70;99.90;;;;;;5093440;28;20120;-76
2021/03/14 07:12:31;;;;;;;10.43;4.70;;;13.80;99.90;;;;;;5093592;28;20047;-77
2021/03/14 07:15:08;;;;;;;8.25;3.72;;;13.90;99.90;;;;;;5093525;28;20043;-77
2021/03/14 07:17:35;;;;;;;8.45;4.07;;;13.90;99.90;;;;;;5093793;28;20397;-76
2021/03/14 07:20:25;;;;;;;10.63;4.00;;;14.00;99.90;;;;;;5093366;28;20028;-75
2021/03/14 07:23:10;;;;;;;9.25;3.40;;;14.10;99.90;;;;;;5093223;28;20024;-77
2021/03/14 07:25:42;;;;;;;6.35;4.22;;;14.10;99.90;;;;;;5093360;28;20024;-78
2021/03/14 07:28:08;;;;;;;11.02;3.78;;;14.10;99.90;;;;;;5093246;28;20111;-78
2021/03/14 07:30:34;;;;;;;7.68;3.83;;;14.10;99.90;;;;;;5093140;28;20119;-78
2021/03/14 07:33:00;;;;;;;8.27;3.15;;;14.10;99.90;;;;;;5091953;28;20389;-78
2021/03/14 07:35:27;;;;;;;4.78;3.17;;;14.10;99.90;;;;;;5093277;28;20032;-78
2021/03/14 07:37:55;;;;;;;5.30;3.28;;;14.20;99.90;;;;;;5091820;28;20036;-78
2021/03/14 07:40:23;;;;;;;8.70;4.07;;;14.20;99.90;;;;;;5093100;28;20024;-78
2021/03/14 07:42:54;;;;;;;11.10;3.72;;;14.20;99.90;;;;;;5093051;28;20069;-78
2021/03/14 07:45:22;;;;;;;5.97;2.83;;;14.30;99.90;;;;;;5093039;28;20431;-78
2021/03/14 07:47:49;;;;;;;6.60;3.45;;;14.30;99.90;;;;;;5092932;28;20024;-78
2021/03/14 07:50:25;;;;;;;6.07;2.60;;;14.40;99.90;;;;;;5092794;28;20032;-78
2021/03/14 07:52:55;;;;;;;7.13;3.53;;;14.50;99.90;;;;;;5092817;28;20052;-78
2021/03/14 07:55:22;;;;;;;8.23;3.53;;;14.60;99.90;;;;;;5092855;28;20024;-75
2021/03/14 07:57:50;;;;;;;6.20;3.17;;;14.60;99.90;;;;;;5092678;28;20481;-76
2021/03/14 08:00:31;;;;;;;7.20;3.40;;;14.70;99.90;;;;;;5092593;28;20040;-78
2021/03/14 08:02:58;;;;;;;9.00;3.05;;;14.70;99.90;;;;;;5091397;28;20031;-76
2021/03/14 08:05:39;;;;;;;7.55;3.67;;;14.90;99.90;;;;;;5090760;28;20036;-76
2021/03/14 08:08:10;;;;;;;6.22;3.33;;;14.90;99.90;;;;;;5092764;28;20042;-76
2021/03/14 08:10:44;;;;;;;5.57;3.25;;;15.00;99.90;;;;;;5092580;28;20036;-76
2021/03/14 08:13:15;;;;;;;15.75;3.25;;;15.10;99.90;;;;;;5092669;28;20508;-77
2021/03/14 08:15:41;;;;;;;4.45;2.40;;;15.10;99.90;;;;;;5092641;28;20035;-76
2021/03/14 08:18:53;;;;;;;8.88;3.80;;;15.00;99.90;;;;;;5092537;28;20024;-76
2021/03/14 08:21:22;;;;;;;6.28;3.10;;;15.00;99.90;;;;;;5091477;28;20036;-76
2021/03/14 08:23:51;;;;;;;7.35;3.35;;;15.00;99.90;;;;;;5092678;28;20407;-76
2021/03/14 08:26:29;;;;;;;6.90;3.17;;;15.00;99.90;;;;;;5091516;28;20169;-76
2021/03/14 08:29:00;;;;;;;8.13;3.50;;;15.10;99.90;;;;;;5091070;28;20036;-76
2021/03/14 08:31:56;;;;;;;6.93;2.88;;;15.20;99.90;;;;;;5091158;28;20028;-76
2021/03/14 08:34:45;;;;;;;8.00;3.22;;;15.20;99.90;;;;;;5091118;28;20025;-73
2021/03/14 08:37:23;;;;;;;9.60;3.80;;;15.20;99.90;;;;;;5092312;28;20096;-73
2021/03/14 08:40:05;;;;;;;8.27;3.40;;;15.20;99.90;;;;;;5092293;28;20024;-74
2021/03/14 08:42:56;;;;;;;8.35;3.47;;;15.30;99.90;;;;;;5090996;28;20040;-73
2021/03/14 08:45:47;;;;;;;4.28;2.70;;;15.40;99.90;;;;;;5092270;28;20028;-74
2021/03/14 08:48:21;;;;;;;7.28;2.45;;;15.40;99.90;;;;;;5092252;28;20036;-73
2021/03/14 08:50:51;;;;;;;7.00;2.47;;;15.40;99.90;;;;;;5092079;28;20036;-73
2021/03/14 08:53:20;;;;;;;4.88;2.42;;;15.50;99.90;;;;;;5092187;28;20028;-73
2021/03/14 08:56:15;;;;;;;5.60;2.67;;;15.80;99.90;;;;;;5087122;28;20036;-73
2021/03/14 08:59:05;;;;;;;6.80;2.95;;;16.00;99.90;;;;;;5090695;28;20048;-73
2021/03/14 09:01:32;;;;;;;;;;;16.10;99.90;;;;;;5091501;28;20036;-73
2021/03/14 09:04:13;;;;;;;8.43;2.95;;;16.10;99.90;;;;;;5090720;28;19908;-75
2021/03/14 09:06:43;;;;;;;8.93;2.60;;;16.30;99.90;;;;;;5090838;28;20032;-75
2021/03/14 09:09:18;;;;;;;;;;;16.50;99.90;;;;;;5091116;28;20038;-79
2021/03/14 09:11:58;;;;;;;3.55;2.70;;;16.60;99.90;;;;;;5075165;28;19916;-77
2021/03/14 09:14:47;;;;;;;9.10;2.42;;;16.60;99.90;;;;;;5091707;28;20077;-78
2021/03/14 09:17:24;;;;;;;3.58;2.28;;;16.90;99.90;;;;;;5094635;28;20381;-76
2021/03/14 09:19:54;;;;;;;6.72;2.90;;;16.90;99.90;;;;;;5094405;28;20059;-77
2021/03/14 09:22:22;;;;;;;5.30;2.42;;;17.10;99.90;;;;;;5094486;28;20039;-78
2021/03/14 09:24:56;;;;;;;5.22;2.83;;;17.30;99.90;;;;;;5094399;28;20028;-78
2021/03/14 09:27:23;;;;;;;5.38;2.50;;;17.50;99.90;;;;;;5095659;28;20108;-75
2021/03/14 09:30:19;;;;;;;5.47;2.33;;;17.70;99.90;;;;;;5095599;28;20067;-76
2021/03/14 09:33:01;;;;;;;7.00;2.65;;;17.60;99.90;;;;;;5094428;28;20388;-78
2021/03/14 09:35:34;;;;;;;4.13;2.30;;;17.40;99.90;;;;;;5094189;28;20123;-78
2021/03/14 09:38:14;;;;;;;4.47;2.58;;;17.30;99.90;;;;;;5094043;28;20496;-75
2021/03/14 09:40:48;;;;;;;5.53;2.53;;;17.20;99.90;;;;;;5094197;28;20115;-78
2021/03/14 09:43:14;;;;;;;4.72;2.38;;;17.10;99.90;;;;;;5095338;28;20036;-76
2021/03/14 09:46:01;;;;;;;4.30;2.08;;;17.10;99.90;;;;;;5079713;28;20032;-77
2021/03/14 09:48:34;;;;;;;4.30;2.30;;;17.40;99.90;;;;;;5099542;28;20035;-75
2021/03/14 09:51:09;;;;;;;6.55;2.10;;;17.50;99.90;;;;;;5098292;28;20078;-77
2021/03/14 09:53:41;;;;;;;4.97;1.92;;;17.10;99.90;;;;;;5093905;28;20024;-78
2021/03/14 09:56:17;;;;;;;5.90;2.33;;;17.00;99.90;;;;;;5093636;28;20032;-75
2021/03/14 09:59:03;;;;;;;4.28;2.45;;;17.00;99.90;;;;;;5063246;28;20139;-75
2021/03/14 10:01:52;;;;;;;9.43;3.13;;;16.50;99.90;;;;;;5093669;28;20507;-75
2021/03/14 10:04:19;;;;;;;6.57;2.13;;;16.00;99.90;;;;;;5093657;28;20034;-77
2021/03/14 10:06:53;;;;;;;6.97;1.90;;;15.70;99.90;;;;;;5093518;28;20119;-74
2021/03/14 10:09:26;;;;;;;4.47;1.92;;;15.50;99.90;;;;;;5094762;28;20032;-76
2021/03/14 10:12:18;;;;;;;7.18;2.03;;;15.30;99.90;;;;;;5087503;28;20032;-75
2021/03/14 10:14:48;;;;;;;9.32;2.35;;;15.20;99.90;;;;;;5093356;28;20054;-75
2021/03/14 10:17:14;;;;;;;9.13;2.63;;;15.20;99.90;;;;;;5093217;28;20025;-74
2021/03/14 10:19:41;;;;;;;4.53;1.98;;;15.20;99.90;;;;;;5093306;28;20442;-75
2021/03/14 10:22:07;;;;;;;5.00;1.95;;;15.10;99.90;;;;;;5093345;28;20032;-75
2021/03/14 10:25:21;;;;;;;5.07;1.55;;;15.20;99.90;;;;;;5094219;28;20052;-77
2021/03/14 10:27:47;;;;;;;4.35;1.80;;;15.30;99.90;;;;;;5093891;28;20396;-75
2021/03/14 10:30:27;;;;;;;4.32;1.48;;;15.40;99.90;;;;;;5093051;28;20036;-75
2021/03/14 10:33:02;;;;;;;4.85;1.75;;;15.30;99.90;;;;;;5093043;28;20078;-75
2021/03/14 10:35:33;;;;;;;6.10;1.88;;;15.40;99.90;;;;;;5093089;28;20032;-76
2021/03/14 10:38:17;;;;;;;6.90;1.63;;;15.60;99.90;;;;;;5092985;28;20063;-74
2021/03/14 10:40:45;;;;;;;5.35;2.30;;;15.60;99.90;;;;;;5093017;28;20554;-77
2021/03/14 10:43:23;;;;;;;7.18;1.80;;;15.90;99.90;;;;;;5092781;28;20024;-74
2021/03/14 10:45:57;;;;;;;6.67;2.40;;;16.30;99.90;;;;;;5092741;28;20032;-76
2021/03/14 10:48:28;;;;;;;6.15;2.13;;;16.20;99.90;;;;;;5092672;28;20308;-76
2021/03/14 10:51:06;;;;;;;7.53;2.17;;;16.00;99.90;;;;;;5092619;28;20036;-74
2021/03/14 10:53:37;;;;;;;4.45;2.53;;;16.00;99.90;;;;;;5092621;28;20035;-76
2021/03/14 10:56:36;;;;;;;3.38;1.70;;;15.90;99.90;;;;;;5092629;28;20028;-75
2021/03/14 10:59:03;;;;;;;4.05;2.38;;;16.00;99.90;;;;;;5093644;28;20039;-78
2021/03/14 11:01:53;;;;;;;5.30;1.73;;;16.00;99.90;;;;;;5092548;28;20388;-76
2021/03/14 11:04:30;;;;;;;5.63;2.38;;;16.40;99.90;;;;;;5092740;28;20027;-75
2021/03/14 11:07:23;;;;;;;5.53;2.15;;;16.90;99.90;;;;;;5092283;28;20032;-78
2021/03/14 11:09:51;;;;;;;5.22;2.13;;;17.50;99.90;;;;;;5092157;28;20044;-76
2021/03/14 11:12:31;;;;;;;5.47;2.25;;;17.70;99.90;;;;;;5092370;28;20099;-78
2021/03/14 11:14:57;;;;;;;7.05;2.67;;;18.10;99.90;;;;;;5092238;28;20086;-78
2021/03/14 11:17:31;;;;;;;7.00;2.30;;;18.40;99.90;;;;;;5092226;28;20043;-78
2021/03/14 11:20:22;;;;;;;8.95;2.88;;;18.80;99.90;;;;;;5093305;28;20028;-78
2021/03/14 11:23:02;;;;;;;8.00;2.78;;;19.00;99.90;;;;;;5092122;28;20488;-77
2021/03/14 11:25:29;;;;;;;8.43;2.60;;;18.80;99.90;;;;;;5092018;28;20035;-79
2021/03/14 11:27:58;;;;;;;8.43;2.60;;;19.10;99.90;;;;;;5093281;28;20054;-78
2021/03/14 11:30:26;;;;;;;7.82;2.58;;;19.20;99.90;;;;;;5091829;28;20059;-78
2021/03/14 11:32:53;;;;;;;3.33;1.92;;;19.10;99.90;;;;;;5093108;28;20036;-78
2021/03/14 11:35:39;;;;;;;4.60;1.75;;;18.60;99.90;;;;;;5092702;28;20111;-78
2021/03/14 11:38:22;;;;;;;5.03;2.38;;;18.00;99.90;;;;;;5091254;28;20085;-78
2021/03/14 11:40:56;;;;;;;3.72;2.35;;;17.80;99.90;;;;;;5092885;28;20051;-77
2021/03/14 11:43:45;;;;;;;6.43;3.03;;;17.80;99.90;;;;;;5087353;28;20036;-79
2021/03/14 11:46:17;;;;;;;8.98;2.78;;;17.70;99.90;;;;;;5075857;28;20075;-78
2021/03/14 11:48:48;;;;;;;6.78;2.53;;;17.80;99.90;;;;;;5091731;28;20489;-78
2021/03/14 11:51:18;;;;;;;8.23;2.80;;;17.80;99.90;;;;;;5093097;28;20073;-78
2021/03/14 11:53:45;;;;;;;5.22;2.90;;;17.90;99.90;;;;;;5092968;28;20103;-78
2021/03/14 11:56:12;;;;;;;5.57;2.78;;;17.90;99.90;;;;;;5091486;28;20036;-78
2021/03/14 11:58:48;;;;;;;9.07;3.38;;;17.90;99.90;;;;;;5091533;28;20036;-78
2021/03/14 12:01:17;;;;;;;8.80;2.88;;;18.00;99.90;;;;;;5091456;28;20065;-78
2021/03/14 12:03:45;;;;;;;4.03;2.45;;;18.00;99.90;;;;;;5091503;28;20080;-78
2021/03/14 12:06:15;;;;;;;6.70;3.17;;;18.20;99.90;;;;;;5091373;28;20035;-78
2021/03/14 12:08:53;;;;;;;7.40;3.00;;;18.50;99.90;;;;;;5091523;28;20061;-76
2021/03/14 12:11:21;;;;;;;6.60;2.97;;;19.20;99.90;;;;;;5091347;28;20028;-76
2021/03/14 12:13:50;;;;;;;8.82;3.70;;;19.70;99.90;;;;;;5091370;28;20028;-75
2021/03/14 12:16:36;;;;;;;5.55;2.25;;;20.20;99.80;;;;;;5092388;28;20103;-77
2021/03/14 12:19:03;;;;;;;5.35;2.65;;;20.50;99.00;;;;;;5092336;28;20128;-75
2021/03/14 12:21:29;;;;;;;5.70;2.47;;;20.80;98.50;;;;;;5091749;28;20024;-76
2021/03/14 12:23:57;;;;;;;6.32;2.25;;;20.90;97.80;;;;;;5091199;28;20459;-75
2021/03/14 12:26:27;;;;;;;4.78;2.15;;;20.50;96.90;;;;;;5108154;28;20549;-75
2021/03/14 12:28:58;;;;;;;6.32;1.98;;;19.90;97.90;;;;;;5091009;28;20036;-75
2021/03/14 12:31:32;;;;;;;8.15;2.90;;;19.80;98.30;;;;;;5091164;28;20085;-75
2021/03/14 12:33:59;;;;;;;7.43;2.92;;;19.50;98.70;;;;;;5091147;28;20028;-75
2021/03/14 12:36:25;;;;;;;5.85;2.47;;;19.70;99.00;;;;;;5074303;28;20032;-76
2021/03/14 12:39:09;;;;;;;6.30;3.13;;;19.90;98.90;;;;;;5091189;28;20035;-75
2021/03/14 12:41:35;;;;;;;4.32;2.35;;;20.00;97.40;;;;;;5090983;28;20494;-75
2021/03/14 12:44:01;;;;;;;5.80;2.80;;;19.60;97.50;;;;;;5092305;28;20039;-75
2021/03/14 12:46:30;;;;;;;5.13;2.45;;;19.60;97.40;;;;;;5090997;28;20027;-75
2021/03/14 12:48:56;;;;;;;8.52;2.28;;;19.30;97.10;;;;;;5090938;28;20028;-76
2021/03/14 12:51:22;;;;;;;7.68;2.00;;;18.90;97.50;;;;;;5095186;28;20052;-76
2021/03/14 12:53:48;;;;;;;4.72;2.35;;;18.90;97.40;;;;;;5095133;28;20480;-75
2021/03/14 12:56:16;;;;;;;5.32;1.90;;;19.40;97.30;;;;;;5094839;28;20043;-75
2021/03/14 12:59:05;;;;;;;4.07;2.05;;;19.40;96.50;;;;;;5095909;28;20048;-77
2021/03/14 13:01:34;;;;;;;4.13;2.13;;;19.40;96.60;;;;;;5094823;28;20106;-78
2021/03/14 13:04:00;;;;;;;6.97;2.83;;;18.70;96.90;;;;;;5096146;28;20020;-78